sensor_id;sensor_type;location;lat;lon;timestamp;P1;durP1;ratioP1;P2;durP2;ratioP2
51288;SDS011;37372;52.294;5.152;2023-06-26T00:02:10;7.05;;;5.50;;
51288;SDS011;37372;52.294;5.152;2023-06-26T00:04:35;11.85;;;5.72;;
51288;SDS011;37372;52.294;5.152;2023-06-26T00:07:02;8.57;;;5.45;;
51288;SDS011;37372;52.294;5.152;2023-06-26T00:09:29;9.48;;;5.43;;
51288;SDS011;37372;52.294;5.152;2023-06-26T00:11:54;7.28;;;5.38;;
51288;SDS011;37372;52.294;5.152;2023-06-26T00:14:20;7.28;;;5.63;;
51288;SDS011;37372;52.294;5.152;2023-06-26T00:16:46;7.28;;;5.70;;
51288;SDS011;37372;52.294;5.152;2023-06-26T00:19:12;11.60;;;6.68;;
51288;SDS011;37372;52.294;5.152;2023-06-26T00:21:37;7.40;;;5.85;;
51288;SDS011;37372;52.294;5.152;2023-06-26T00:24:03;7.72;;;5.55;;
51288;SDS011;37372;52.294;5.152;2023-06-26T00:26:31;7.95;;;5.75;;
51288;SDS011;37372;52.294;5.152;2023-06-26T00:28:57;8.63;;;5.75;;
51288;SDS011;37372;52.294;5.152;2023-06-26T00:31:23;7.65;;;5.25;;
51288;SDS011;37372;52.294;5.152;2023-06-26T00:33:48;8.55;;;6.10;;
51288;SDS011;37372;52.294;5.152;2023-06-26T00:36:17;8.15;;;5.68;;
51288;SDS011;37372;52.294;5.152;2023-06-26T00:38:43;8.88;;;6.35;;
51288;SDS011;37372;52.294;5.152;2023-06-26T00:41:08;8.68;;;5.20;;
51288;SDS011;37372;52.294;5.152;2023-06-26T00:43:37;7.43;;;5.82;;
51288;SDS011;37372;52.294;5.152;2023-06-26T00:46:03;7.72;;;5.60;;
51288;SDS011;37372;52.294;5.152;2023-06-26T00:48:28;8.20;;;6.40;;
51288;SDS011;37372;52.294;5.152;2023-06-26T00:50:54;12.93;;;6.40;;
51288;SDS011;37372;52.294;5.152;2023-06-26T00:53:20;8.77;;;6.63;;
51288;SDS011;37372;52.294;5.152;2023-06-26T00:55:46;8.32;;;5.93;;
51288;SDS011;37372;52.294;5.152;2023-06-26T00:58:12;10.02;;;7.00;;
51288;SDS011;37372;52.294;5.152;2023-06-26T01:00:38;11.10;;;7.05;;
51288;SDS011;37372;52.294;5.152;2023-06-26T01:03:04;7.40;;;6.18;;
51288;SDS011;37372;52.294;5.152;2023-06-26T01:05:29;8.98;;;6.78;;
51288;SDS011;37372;52.294;5.152;2023-06-26T01:07:55;13.57;;;7.18;;
51288;SDS011;37372;52.294;5.152;2023-06-26T01:10:23;10.77;;;6.80;;
51288;SDS011;37372;52.294;5.152;2023-06-26T01:12:49;10.98;;;6.53;;
51288;SDS011;37372;52.294;5.152;2023-06-26T01:15:14;8.40;;;5.97;;
51288;SDS011;37372;52.294;5.152;2023-06-26T01:17:40;8.02;;;5.85;;
51288;SDS011;37372;52.294;5.152;2023-06-26T01:20:10;14.25;;;6.53;;
51288;SDS011;37372;52.294;5.152;2023-06-26T01:22:39;10.40;;;5.70;;
51288;SDS011;37372;52.294;5.152;2023-06-26T01:28:19;11.10;;;5.75;;
51288;SDS011;37372;52.294;5.152;2023-06-26T01:30:45;10.65;;;6.20;;
51288;SDS011;37372;52.294;5.152;2023-06-26T01:33:12;10.68;;;6.32;;
51288;SDS011;37372;52.294;5.152;2023-06-26T01:35:39;9.38;;;5.05;;
51288;SDS011;37372;52.294;5.152;2023-06-26T01:38:16;9.27;;;4.70;;
51288;SDS011;37372;52.294;5.152;2023-06-26T01:40:42;10.02;;;5.00;;
51288;SDS011;37372;52.294;5.152;2023-06-26T01:46:21;10.18;;;4.97;;
51288;SDS011;37372;52.294;5.152;2023-06-26T01:48:54;12.43;;;4.57;;
51288;SDS011;37372;52.294;5.152;2023-06-26T01:51:30;8.00;;;4.28;;
51288;SDS011;37372;52.294;5.152;2023-06-26T01:53:59;6.75;;;4.22;;
51288;SDS011;37372;52.294;5.152;2023-06-26T01:56:26;10.50;;;5.55;;
51288;SDS011;37372;52.294;5.152;2023-06-26T01:58:53;14.32;;;5.15;;
51288;SDS011;37372;52.294;5.152;2023-06-26T02:01:20;15.07;;;5.45;;
51288;SDS011;37372;52.294;5.152;2023-06-26T02:03:46;11.00;;;4.97;;
51288;SDS011;37372;52.294;5.152;2023-06-26T02:06:12;10.65;;;5.72;;
51288;SDS011;37372;52.294;5.152;2023-06-26T02:08:37;11.82;;;4.80;;
51288;SDS011;37372;52.294;5.152;2023-06-26T02:11:03;10.55;;;5.20;;
51288;SDS011;37372;52.294;5.152;2023-06-26T02:13:29;12.30;;;4.82;;
51288;SDS011;37372;52.294;5.152;2023-06-26T02:15:54;11.07;;;5.00;;
51288;SDS011;37372;52.294;5.152;2023-06-26T02:18:20;21.20;;;5.57;;
51288;SDS011;37372;52.294;5.152;2023-06-26T02:20:47;14.20;;;5.10;;
51288;SDS011;37372;52.294;5.152;2023-06-26T02:23:14;14.43;;;5.43;;
51288;SDS011;37372;52.294;5.152;2023-06-26T02:25:39;10.70;;;5.57;;
51288;SDS011;37372;52.294;5.152;2023-06-26T02:28:05;13.98;;;5.22;;
51288;SDS011;37372;52.294;5.152;2023-06-26T02:30:30;15.20;;;6.22;;
51288;SDS011;37372;52.294;5.152;2023-06-26T02:32:56;8.85;;;4.60;;
51288;SDS011;37372;52.294;5.152;2023-06-26T02:35:21;14.85;;;5.40;;
51288;SDS011;37372;52.294;5.152;2023-06-26T02:37:47;18.90;;;6.20;;
51288;SDS011;37372;52.294;5.152;2023-06-26T02:40:12;20.58;;;6.03;;
51288;SDS011;37372;52.294;5.152;2023-06-26T02:42:37;16.27;;;6.22;;
51288;SDS011;37372;52.294;5.152;2023-06-26T02:45:03;17.10;;;5.55;;
51288;SDS011;37372;52.294;5.152;2023-06-26T02:47:29;15.75;;;4.82;;
51288;SDS011;37372;52.294;5.152;2023-06-26T02:49:54;15.77;;;5.18;;
51288;SDS011;37372;52.294;5.152;2023-06-26T02:52:20;17.00;;;6.15;;
51288;SDS011;37372;52.294;5.152;2023-06-26T02:54:45;17.75;;;5.40;;
51288;SDS011;37372;52.294;5.152;2023-06-26T02:57:11;12.65;;;5.60;;
51288;SDS011;37372;52.294;5.152;2023-06-26T02:59:37;19.75;;;6.75;;
51288;SDS011;37372;52.294;5.152;2023-06-26T03:02:04;16.85;;;5.80;;
51288;SDS011;37372;52.294;5.152;2023-06-26T03:04:29;20.55;;;6.63;;
51288;SDS011;37372;52.294;5.152;2023-06-26T03:06:55;18.40;;;5.93;;
51288;SDS011;37372;52.294;5.152;2023-06-26T03:09:20;20.13;;;7.75;;
51288;SDS011;37372;52.294;5.152;2023-06-26T03:11:45;19.95;;;7.43;;
51288;SDS011;37372;52.294;5.152;2023-06-26T03:14:11;20.17;;;6.28;;
51288;SDS011;37372;52.294;5.152;2023-06-26T03:16:36;15.02;;;6.15;;
51288;SDS011;37372;52.294;5.152;2023-06-26T03:19:01;20.23;;;6.53;;
51288;SDS011;37372;52.294;5.152;2023-06-26T03:21:30;17.35;;;5.53;;
51288;SDS011;37372;52.294;5.152;2023-06-26T03:23:55;22.40;;;7.50;;
51288;SDS011;37372;52.294;5.152;2023-06-26T03:26:21;16.15;;;6.28;;
51288;SDS011;37372;52.294;5.152;2023-06-26T03:28:53;18.67;;;6.13;;
51288;SDS011;37372;52.294;5.152;2023-06-26T03:31:18;20.08;;;7.30;;
51288;SDS011;37372;52.294;5.152;2023-06-26T03:33:44;21.48;;;6.55;;
51288;SDS011;37372;52.294;5.152;2023-06-26T03:36:10;15.90;;;5.70;;
51288;SDS011;37372;52.294;5.152;2023-06-26T03:38:35;23.02;;;6.28;;
51288;SDS011;37372;52.294;5.152;2023-06-26T03:41:01;16.23;;;5.57;;
51288;SDS011;37372;52.294;5.152;2023-06-26T03:43:27;18.75;;;6.47;;
51288;SDS011;37372;52.294;5.152;2023-06-26T03:45:52;19.25;;;6.63;;
51288;SDS011;37372;52.294;5.152;2023-06-26T03:48:18;16.33;;;6.28;;
51288;SDS011;37372;52.294;5.152;2023-06-26T03:50:44;22.10;;;7.03;;
51288;SDS011;37372;52.294;5.152;2023-06-26T03:53:09;18.63;;;5.72;;
51288;SDS011;37372;52.294;5.152;2023-06-26T03:55:35;22.40;;;6.60;;
51288;SDS011;37372;52.294;5.152;2023-06-26T03:58:00;17.50;;;7.05;;
51288;SDS011;37372;52.294;5.152;2023-06-26T04:00:25;19.33;;;6.25;;
51288;SDS011;37372;52.294;5.152;2023-06-26T04:02:51;22.50;;;6.68;;
51288;SDS011;37372;52.294;5.152;2023-06-26T04:05:16;16.38;;;5.85;;
51288;SDS011;37372;52.294;5.152;2023-06-26T04:07:42;16.38;;;5.93;;
51288;SDS011;37372;52.294;5.152;2023-06-26T04:10:08;18.73;;;6.70;;
51288;SDS011;37372;52.294;5.152;2023-06-26T04:12:34;15.65;;;5.55;;
51288;SDS011;37372;52.294;5.152;2023-06-26T04:14:59;13.82;;;5.15;;
51288;SDS011;37372;52.294;5.152;2023-06-26T04:17:25;11.85;;;4.72;;
51288;SDS011;37372;52.294;5.152;2023-06-26T04:19:50;12.82;;;5.63;;
51288;SDS011;37372;52.294;5.152;2023-06-26T04:22:16;17.50;;;6.43;;
51288;SDS011;37372;52.294;5.152;2023-06-26T04:24:41;13.13;;;5.28;;
51288;SDS011;37372;52.294;5.152;2023-06-26T04:27:08;17.55;;;5.88;;
51288;SDS011;37372;52.294;5.152;2023-06-26T04:29:34;17.92;;;5.50;;
51288;SDS011;37372;52.294;5.152;2023-06-26T04:32:00;16.27;;;5.75;;
51288;SDS011;37372;52.294;5.152;2023-06-26T04:34:25;13.57;;;5.45;;
51288;SDS011;37372;52.294;5.152;2023-06-26T04:36:51;13.45;;;5.90;;
51288;SDS011;37372;52.294;5.152;2023-06-26T04:39:17;11.93;;;5.25;;
51288;SDS011;37372;52.294;5.152;2023-06-26T04:41:43;16.48;;;5.10;;
51288;SDS011;37372;52.294;5.152;2023-06-26T04:44:09;11.35;;;4.55;;
51288;SDS011;37372;52.294;5.152;2023-06-26T04:46:36;14.05;;;4.68;;
51288;SDS011;37372;52.294;5.152;2023-06-26T04:49:06;17.75;;;5.70;;
51288;SDS011;37372;52.294;5.152;2023-06-26T04:51:32;12.38;;;4.03;;
51288;SDS011;37372;52.294;5.152;2023-06-26T04:53:57;9.48;;;4.30;;
51288;SDS011;37372;52.294;5.152;2023-06-26T04:56:22;8.63;;;3.80;;
51288;SDS011;37372;52.294;5.152;2023-06-26T04:58:48;7.22;;;3.40;;
51288;SDS011;37372;52.294;5.152;2023-06-26T05:01:13;10.52;;;3.70;;
51288;SDS011;37372;52.294;5.152;2023-06-26T05:03:39;8.07;;;2.97;;
51288;SDS011;37372;52.294;5.152;2023-06-26T05:06:05;6.72;;;3.35;;
51288;SDS011;37372;52.294;5.152;2023-06-26T05:08:30;8.65;;;3.50;;
51288;SDS011;37372;52.294;5.152;2023-06-26T05:10:56;6.32;;;2.83;;
51288;SDS011;37372;52.294;5.152;2023-06-26T05:13:25;8.23;;;3.20;;
51288;SDS011;37372;52.294;5.152;2023-06-26T05:15:51;6.22;;;2.85;;
51288;SDS011;37372;52.294;5.152;2023-06-26T05:18:17;6.03;;;3.55;;
51288;SDS011;37372;52.294;5.152;2023-06-26T05:20:43;5.97;;;3.25;;
51288;SDS011;37372;52.294;5.152;2023-06-26T05:23:10;8.50;;;3.38;;
51288;SDS011;37372;52.294;5.152;2023-06-26T05:25:37;6.80;;;3.30;;
51288;SDS011;37372;52.294;5.152;2023-06-26T05:28:03;5.70;;;2.40;;
51288;SDS011;37372;52.294;5.152;2023-06-26T05:30:33;9.38;;;2.80;;
51288;SDS011;37372;52.294;5.152;2023-06-26T05:33:02;5.85;;;2.92;;
51288;SDS011;37372;52.294;5.152;2023-06-26T05:35:29;6.38;;;3.08;;
51288;SDS011;37372;52.294;5.152;2023-06-26T05:37:59;9.10;;;3.35;;
51288;SDS011;37372;52.294;5.152;2023-06-26T05:40:24;5.20;;;3.00;;
51288;SDS011;37372;52.294;5.152;2023-06-26T05:42:50;6.57;;;2.75;;
51288;SDS011;37372;52.294;5.152;2023-06-26T05:45:16;7.72;;;2.97;;
51288;SDS011;37372;52.294;5.152;2023-06-26T05:47:42;8.30;;;2.85;;
51288;SDS011;37372;52.294;5.152;2023-06-26T05:50:08;7.95;;;3.17;;
51288;SDS011;37372;52.294;5.152;2023-06-26T05:52:35;9.32;;;2.78;;
51288;SDS011;37372;52.294;5.152;2023-06-26T05:55:02;8.38;;;2.83;;
51288;SDS011;37372;52.294;5.152;2023-06-26T05:57:29;4.95;;;2.17;;
51288;SDS011;37372;52.294;5.152;2023-06-26T05:59:55;8.00;;;2.88;;
51288;SDS011;37372;52.294;5.152;2023-06-26T06:02:21;7.05;;;2.83;;
51288;SDS011;37372;52.294;5.152;2023-06-26T06:04:47;10.52;;;2.63;;
51288;SDS011;37372;52.294;5.152;2023-06-26T06:07:13;8.30;;;2.83;;
51288;SDS011;37372;52.294;5.152;2023-06-26T06:09:39;4.95;;;2.58;;
51288;SDS011;37372;52.294;5.152;2023-06-26T06:12:05;5.65;;;2.60;;
51288;SDS011;37372;52.294;5.152;2023-06-26T06:14:31;5.85;;;2.53;;
51288;SDS011;37372;52.294;5.152;2023-06-26T06:16:57;7.82;;;2.20;;
51288;SDS011;37372;52.294;5.152;2023-06-26T06:19:22;5.43;;;2.53;;
51288;SDS011;37372;52.294;5.152;2023-06-26T06:21:48;6.35;;;2.45;;
51288;SDS011;37372;52.294;5.152;2023-06-26T06:24:13;5.03;;;2.30;;
51288;SDS011;37372;52.294;5.152;2023-06-26T06:26:39;6.82;;;2.70;;
51288;SDS011;37372;52.294;5.152;2023-06-26T06:29:07;9.40;;;2.55;;
51288;SDS011;37372;52.294;5.152;2023-06-26T06:31:33;6.53;;;2.85;;
51288;SDS011;37372;52.294;5.152;2023-06-26T06:33:59;13.00;;;2.90;;
51288;SDS011;37372;52.294;5.152;2023-06-26T06:36:25;7.03;;;2.75;;
51288;SDS011;37372;52.294;5.152;2023-06-26T06:38:50;7.18;;;2.53;;
51288;SDS011;37372;52.294;5.152;2023-06-26T06:41:16;4.85;;;2.25;;
51288;SDS011;37372;52.294;5.152;2023-06-26T06:43:41;7.65;;;3.28;;
51288;SDS011;37372;52.294;5.152;2023-06-26T06:46:07;7.63;;;3.63;;
51288;SDS011;37372;52.294;5.152;2023-06-26T06:48:33;8.10;;;2.95;;
51288;SDS011;37372;52.294;5.152;2023-06-26T06:50:59;6.65;;;2.53;;
51288;SDS011;37372;52.294;5.152;2023-06-26T06:53:25;6.90;;;2.65;;
51288;SDS011;37372;52.294;5.152;2023-06-26T06:55:50;6.13;;;2.42;;
51288;SDS011;37372;52.294;5.152;2023-06-26T06:58:16;7.25;;;2.80;;
51288;SDS011;37372;52.294;5.152;2023-06-26T07:00:44;11.13;;;3.33;;
51288;SDS011;37372;52.294;5.152;2023-06-26T07:03:10;8.73;;;3.10;;
51288;SDS011;37372;52.294;5.152;2023-06-26T07:05:35;12.82;;;2.83;;
51288;SDS011;37372;52.294;5.152;2023-06-26T07:08:01;8.20;;;2.75;;
51288;SDS011;37372;52.294;5.152;2023-06-26T07:10:26;5.18;;;2.78;;
51288;SDS011;37372;52.294;5.152;2023-06-26T07:12:52;6.00;;;2.65;;
51288;SDS011;37372;52.294;5.152;2023-06-26T07:15:18;7.85;;;2.53;;
51288;SDS011;37372;52.294;5.152;2023-06-26T07:17:43;7.32;;;2.70;;
51288;SDS011;37372;52.294;5.152;2023-06-26T07:20:09;8.98;;;2.95;;
51288;SDS011;37372;52.294;5.152;2023-06-26T07:22:40;8.55;;;2.63;;
51288;SDS011;37372;52.294;5.152;2023-06-26T07:25:06;5.78;;;2.78;;
51288;SDS011;37372;52.294;5.152;2023-06-26T07:27:35;6.97;;;3.03;;
51288;SDS011;37372;52.294;5.152;2023-06-26T07:30:01;6.20;;;2.53;;
51288;SDS011;37372;52.294;5.152;2023-06-26T07:32:30;6.65;;;2.67;;
51288;SDS011;37372;52.294;5.152;2023-06-26T07:34:55;8.68;;;3.03;;
51288;SDS011;37372;52.294;5.152;2023-06-26T07:37:20;8.07;;;3.58;;
51288;SDS011;37372;52.294;5.152;2023-06-26T07:39:46;7.07;;;2.85;;
51288;SDS011;37372;52.294;5.152;2023-06-26T07:42:12;7.82;;;3.15;;
51288;SDS011;37372;52.294;5.152;2023-06-26T07:44:38;9.52;;;3.25;;
51288;SDS011;37372;52.294;5.152;2023-06-26T07:47:07;11.57;;;2.72;;
51288;SDS011;37372;52.294;5.152;2023-06-26T07:49:32;6.80;;;2.88;;
51288;SDS011;37372;52.294;5.152;2023-06-26T07:51:58;16.23;;;3.08;;
51288;SDS011;37372;52.294;5.152;2023-06-26T07:54:23;6.15;;;1.95;;
51288;SDS011;37372;52.294;5.152;2023-06-26T07:57:02;6.53;;;2.20;;
51288;SDS011;37372;52.294;5.152;2023-06-26T07:59:31;10.05;;;2.08;;
51288;SDS011;37372;52.294;5.152;2023-06-26T08:01:58;13.95;;;4.28;;
51288;SDS011;37372;52.294;5.152;2023-06-26T08:04:24;5.78;;;2.35;;
51288;SDS011;37372;52.294;5.152;2023-06-26T08:06:51;14.13;;;3.30;;
51288;SDS011;37372;52.294;5.152;2023-06-26T08:09:19;9.30;;;2.40;;
51288;SDS011;37372;52.294;5.152;2023-06-26T08:11:46;8.40;;;2.95;;
51288;SDS011;37372;52.294;5.152;2023-06-26T08:14:12;5.07;;;2.15;;
51288;SDS011;37372;52.294;5.152;2023-06-26T08:16:38;9.98;;;2.92;;
51288;SDS011;37372;52.294;5.152;2023-06-26T08:19:04;8.68;;;2.17;;
51288;SDS011;37372;52.294;5.152;2023-06-26T08:21:29;5.43;;;1.80;;
51288;SDS011;37372;52.294;5.152;2023-06-26T08:23:55;15.68;;;3.13;;
51288;SDS011;37372;52.294;5.152;2023-06-26T08:26:20;10.65;;;2.42;;
51288;SDS011;37372;52.294;5.152;2023-06-26T08:28:46;7.28;;;1.67;;
51288;SDS011;37372;52.294;5.152;2023-06-26T08:31:11;7.22;;;1.92;;
51288;SDS011;37372;52.294;5.152;2023-06-26T08:33:37;6.82;;;1.83;;
51288;SDS011;37372;52.294;5.152;2023-06-26T08:36:03;6.35;;;1.77;;
51288;SDS011;37372;52.294;5.152;2023-06-26T08:38:28;6.07;;;2.17;;
51288;SDS011;37372;52.294;5.152;2023-06-26T08:40:54;11.48;;;2.55;;
51288;SDS011;37372;52.294;5.152;2023-06-26T08:43:19;5.97;;;1.80;;
51288;SDS011;37372;52.294;5.152;2023-06-26T08:45:46;6.05;;;1.88;;
51288;SDS011;37372;52.294;5.152;2023-06-26T08:48:16;5.97;;;2.08;;
51288;SDS011;37372;52.294;5.152;2023-06-26T08:50:42;9.35;;;2.15;;
51288;SDS011;37372;52.294;5.152;2023-06-26T08:53:23;13.20;;;2.45;;
51288;SDS011;37372;52.294;5.152;2023-06-26T08:55:57;6.18;;;1.92;;
51288;SDS011;37372;52.294;5.152;2023-06-26T08:58:23;6.60;;;1.88;;
51288;SDS011;37372;52.294;5.152;2023-06-26T09:00:49;7.07;;;1.42;;
51288;SDS011;37372;52.294;5.152;2023-06-26T09:03:15;10.50;;;1.92;;
51288;SDS011;37372;52.294;5.152;2023-06-26T09:05:41;7.82;;;2.30;;
51288;SDS011;37372;52.294;5.152;2023-06-26T09:08:08;8.25;;;1.85;;
51288;SDS011;37372;52.294;5.152;2023-06-26T09:10:34;7.47;;;3.00;;
51288;SDS011;37372;52.294;5.152;2023-06-26T09:12:59;7.22;;;2.30;;
51288;SDS011;37372;52.294;5.152;2023-06-26T09:15:36;5.85;;;2.35;;
51288;SDS011;37372;52.294;5.152;2023-06-26T09:18:04;5.97;;;2.00;;
51288;SDS011;37372;52.294;5.152;2023-06-26T09:20:30;6.72;;;1.83;;
51288;SDS011;37372;52.294;5.152;2023-06-26T09:22:58;3.88;;;1.80;;
51288;SDS011;37372;52.294;5.152;2023-06-26T09:25:24;8.90;;;2.53;;
51288;SDS011;37372;52.294;5.152;2023-06-26T09:27:49;6.50;;;2.00;;
51288;SDS011;37372;52.294;5.152;2023-06-26T09:30:18;8.27;;;2.58;;
51288;SDS011;37372;52.294;5.152;2023-06-26T09:32:46;15.68;;;2.63;;
51288;SDS011;37372;52.294;5.152;2023-06-26T09:35:12;5.38;;;1.60;;
51288;SDS011;37372;52.294;5.152;2023-06-26T09:37:37;9.73;;;2.22;;
51288;SDS011;37372;52.294;5.152;2023-06-26T09:40:03;10.10;;;1.88;;
51288;SDS011;37372;52.294;5.152;2023-06-26T09:42:30;6.85;;;2.03;;
51288;SDS011;37372;52.294;5.152;2023-06-26T09:44:55;9.23;;;1.75;;
51288;SDS011;37372;52.294;5.152;2023-06-26T09:47:21;9.35;;;1.60;;
51288;SDS011;37372;52.294;5.152;2023-06-26T09:49:47;3.83;;;1.40;;
51288;SDS011;37372;52.294;5.152;2023-06-26T09:52:14;7.60;;;1.52;;
51288;SDS011;37372;52.294;5.152;2023-06-26T09:54:44;4.50;;;1.30;;
51288;SDS011;37372;52.294;5.152;2023-06-26T09:57:11;4.80;;;1.65;;
51288;SDS011;37372;52.294;5.152;2023-06-26T09:59:44;3.25;;;1.40;;
51288;SDS011;37372;52.294;5.152;2023-06-26T10:02:13;2.60;;;1.15;;
51288;SDS011;37372;52.294;5.152;2023-06-26T10:04:38;14.00;;;1.45;;
51288;SDS011;37372;52.294;5.152;2023-06-26T10:07:08;4.22;;;1.00;;
51288;SDS011;37372;52.294;5.152;2023-06-26T10:09:40;5.60;;;1.52;;
51288;SDS011;37372;52.294;5.152;2023-06-26T10:12:06;12.70;;;1.10;;
51288;SDS011;37372;52.294;5.152;2023-06-26T10:14:44;8.52;;;1.90;;
51288;SDS011;37372;52.294;5.152;2023-06-26T10:17:11;4.10;;;1.23;;
51288;SDS011;37372;52.294;5.152;2023-06-26T10:19:41;6.70;;;1.25;;
51288;SDS011;37372;52.294;5.152;2023-06-26T10:22:09;3.65;;;1.20;;
51288;SDS011;37372;52.294;5.152;2023-06-26T10:24:47;6.00;;;1.30;;
51288;SDS011;37372;52.294;5.152;2023-06-26T10:27:15;5.15;;;1.27;;
51288;SDS011;37372;52.294;5.152;2023-06-26T10:29:53;3.40;;;1.00;;
51288;SDS011;37372;52.294;5.152;2023-06-26T10:32:21;5.07;;;1.20;;
51288;SDS011;37372;52.294;5.152;2023-06-26T10:34:50;5.63;;;1.58;;
51288;SDS011;37372;52.294;5.152;2023-06-26T10:37:16;6.45;;;1.20;;
51288;SDS011;37372;52.294;5.152;2023-06-26T10:39:45;4.25;;;1.30;;
51288;SDS011;37372;52.294;5.152;2023-06-26T10:42:12;5.90;;;1.13;;
51288;SDS011;37372;52.294;5.152;2023-06-26T10:44:42;5.18;;;1.08;;
51288;SDS011;37372;52.294;5.152;2023-06-26T10:47:08;7.85;;;1.65;;
51288;SDS011;37372;52.294;5.152;2023-06-26T10:49:35;4.72;;;1.20;;
51288;SDS011;37372;52.294;5.152;2023-06-26T10:52:01;3.40;;;0.98;;
51288;SDS011;37372;52.294;5.152;2023-06-26T10:54:31;4.22;;;1.30;;
51288;SDS011;37372;52.294;5.152;2023-06-26T10:56:58;4.35;;;1.58;;
51288;SDS011;37372;52.294;5.152;2023-06-26T10:59:25;4.93;;;1.23;;
51288;SDS011;37372;52.294;5.152;2023-06-26T11:02:02;3.60;;;1.50;;
51288;SDS011;37372;52.294;5.152;2023-06-26T11:04:38;5.47;;;1.92;;
51288;SDS011;37372;52.294;5.152;2023-06-26T11:07:14;3.45;;;1.10;;
51288;SDS011;37372;52.294;5.152;2023-06-26T11:12:40;7.75;;;1.20;;
51288;SDS011;37372;52.294;5.152;2023-06-26T11:15:10;4.57;;;1.00;;
51288;SDS011;37372;52.294;5.152;2023-06-26T11:17:44;5.70;;;1.23;;
51288;SDS011;37372;52.294;5.152;2023-06-26T11:20:10;5.75;;;1.48;;
51288;SDS011;37372;52.294;5.152;2023-06-26T11:22:37;7.95;;;1.17;;
51288;SDS011;37372;52.294;5.152;2023-06-26T11:25:04;9.65;;;2.42;;
51288;SDS011;37372;52.294;5.152;2023-06-26T11:27:40;6.82;;;1.00;;
51288;SDS011;37372;52.294;5.152;2023-06-26T11:30:11;3.03;;;0.80;;
51288;SDS011;37372;52.294;5.152;2023-06-26T11:32:47;4.63;;;1.15;;
51288;SDS011;37372;52.294;5.152;2023-06-26T11:35:12;7.32;;;1.55;;
51288;SDS011;37372;52.294;5.152;2023-06-26T11:37:38;3.85;;;0.98;;
51288;SDS011;37372;52.294;5.152;2023-06-26T11:40:24;2.67;;;0.90;;
51288;SDS011;37372;52.294;5.152;2023-06-26T11:42:52;5.28;;;1.58;;
51288;SDS011;37372;52.294;5.152;2023-06-26T11:45:19;8.02;;;2.00;;
51288;SDS011;37372;52.294;5.152;2023-06-26T11:47:45;3.38;;;1.00;;
51288;SDS011;37372;52.294;5.152;2023-06-26T11:50:16;6.93;;;1.08;;
51288;SDS011;37372;52.294;5.152;2023-06-26T11:52:45;5.78;;;1.15;;
51288;SDS011;37372;52.294;5.152;2023-06-26T11:55:19;3.60;;;0.90;;
51288;SDS011;37372;52.294;5.152;2023-06-26T11:57:54;5.47;;;1.00;;
51288;SDS011;37372;52.294;5.152;2023-06-26T12:00:21;4.65;;;1.00;;
51288;SDS011;37372;52.294;5.152;2023-06-26T12:02:48;84.97;;;7.03;;
51288;SDS011;37372;52.294;5.152;2023-06-26T12:05:18;8.30;;;1.33;;
51288;SDS011;37372;52.294;5.152;2023-06-26T12:07:46;5.93;;;0.77;;
51288;SDS011;37372;52.294;5.152;2023-06-26T12:10:13;5.05;;;1.00;;
51288;SDS011;37372;52.294;5.152;2023-06-26T12:12:40;5.80;;;1.45;;
51288;SDS011;37372;52.294;5.152;2023-06-26T12:15:06;2.45;;;1.00;;
51288;SDS011;37372;52.294;5.152;2023-06-26T12:17:33;5.43;;;1.70;;
51288;SDS011;37372;52.294;5.152;2023-06-26T12:20:02;2.45;;;0.90;;
51288;SDS011;37372;52.294;5.152;2023-06-26T12:22:33;9.00;;;1.08;;
51288;SDS011;37372;52.294;5.152;2023-06-26T12:25:00;6.40;;;1.25;;
51288;SDS011;37372;52.294;5.152;2023-06-26T12:27:27;6.13;;;1.00;;
51288;SDS011;37372;52.294;5.152;2023-06-26T12:29:53;5.70;;;1.10;;
51288;SDS011;37372;52.294;5.152;2023-06-26T12:32:19;20.55;;;2.15;;
51288;SDS011;37372;52.294;5.152;2023-06-26T12:34:49;6.07;;;0.90;;
51288;SDS011;37372;52.294;5.152;2023-06-26T12:37:15;5.20;;;1.70;;
51288;SDS011;37372;52.294;5.152;2023-06-26T12:39:54;4.10;;;0.77;;
51288;SDS011;37372;52.294;5.152;2023-06-26T12:42:21;6.85;;;1.55;;
51288;SDS011;37372;52.294;5.152;2023-06-26T12:44:48;5.53;;;1.20;;
51288;SDS011;37372;52.294;5.152;2023-06-26T12:47:18;7.10;;;1.13;;
51288;SDS011;37372;52.294;5.152;2023-06-26T12:49:45;3.85;;;1.00;;
51288;SDS011;37372;52.294;5.152;2023-06-26T12:52:12;6.53;;;1.13;;
51288;SDS011;37372;52.294;5.152;2023-06-26T12:54:40;3.10;;;0.73;;
51288;SDS011;37372;52.294;5.152;2023-06-26T12:57:07;5.95;;;1.23;;
51288;SDS011;37372;52.294;5.152;2023-06-26T12:59:33;7.97;;;1.10;;
51288;SDS011;37372;52.294;5.152;2023-06-26T13:02:02;7.18;;;1.52;;
51288;SDS011;37372;52.294;5.152;2023-06-26T13:04:28;3.75;;;1.00;;
51288;SDS011;37372;52.294;5.152;2023-06-26T13:06:54;6.45;;;1.42;;
51288;SDS011;37372;52.294;5.152;2023-06-26T13:09:19;8.70;;;1.30;;
51288;SDS011;37372;52.294;5.152;2023-06-26T13:11:45;5.05;;;1.10;;
51288;SDS011;37372;52.294;5.152;2023-06-26T13:14:11;4.68;;;1.02;;
51288;SDS011;37372;52.294;5.152;2023-06-26T13:16:36;6.68;;;1.48;;
51288;SDS011;37372;52.294;5.152;2023-06-26T13:19:02;5.85;;;1.08;;
51288;SDS011;37372;52.294;5.152;2023-06-26T13:21:28;4.55;;;1.10;;
51288;SDS011;37372;52.294;5.152;2023-06-26T13:23:53;3.75;;;1.05;;
51288;SDS011;37372;52.294;5.152;2023-06-26T13:26:20;8.32;;;2.30;;
51288;SDS011;37372;52.294;5.152;2023-06-26T13:28:50;4.22;;;1.08;;
51288;SDS011;37372;52.294;5.152;2023-06-26T13:31:15;5.43;;;1.02;;
51288;SDS011;37372;52.294;5.152;2023-06-26T13:33:41;3.28;;;0.88;;
51288;SDS011;37372;52.294;5.152;2023-06-26T13:36:07;3.50;;;1.38;;
51288;SDS011;37372;52.294;5.152;2023-06-26T13:38:35;3.58;;;0.90;;
51288;SDS011;37372;52.294;5.152;2023-06-26T13:41:03;3.83;;;0.80;;
51288;SDS011;37372;52.294;5.152;2023-06-26T13:43:29;3.30;;;0.95;;
51288;SDS011;37372;52.294;5.152;2023-06-26T13:45:55;4.65;;;1.00;;
51288;SDS011;37372;52.294;5.152;2023-06-26T13:48:20;7.90;;;0.70;;
51288;SDS011;37372;52.294;5.152;2023-06-26T13:50:49;2.92;;;0.90;;
51288;SDS011;37372;52.294;5.152;2023-06-26T13:53:14;6.40;;;1.20;;
51288;SDS011;37372;52.294;5.152;2023-06-26T13:55:40;4.47;;;1.52;;
51288;SDS011;37372;52.294;5.152;2023-06-26T13:58:06;8.90;;;1.50;;
51288;SDS011;37372;52.294;5.152;2023-06-26T14:00:32;4.35;;;1.73;;
51288;SDS011;37372;52.294;5.152;2023-06-26T14:03:01;3.58;;;0.95;;
51288;SDS011;37372;52.294;5.152;2023-06-26T14:05:31;17.38;;;2.08;;
51288;SDS011;37372;52.294;5.152;2023-06-26T14:07:56;3.97;;;1.05;;
51288;SDS011;37372;52.294;5.152;2023-06-26T14:10:22;4.07;;;1.00;;
51288;SDS011;37372;52.294;5.152;2023-06-26T14:12:48;4.07;;;1.52;;
51288;SDS011;37372;52.294;5.152;2023-06-26T14:15:15;4.25;;;1.05;;
51288;SDS011;37372;52.294;5.152;2023-06-26T14:17:40;3.45;;;1.20;;
51288;SDS011;37372;52.294;5.152;2023-06-26T14:20:06;2.72;;;0.95;;
51288;SDS011;37372;52.294;5.152;2023-06-26T14:22:40;3.63;;;1.10;;
51288;SDS011;37372;52.294;5.152;2023-06-26T14:25:06;3.08;;;1.02;;
51288;SDS011;37372;52.294;5.152;2023-06-26T14:27:32;4.82;;;1.30;;
51288;SDS011;37372;52.294;5.152;2023-06-26T14:29:57;3.72;;;1.35;;
51288;SDS011;37372;52.294;5.152;2023-06-26T14:32:23;4.93;;;1.20;;
51288;SDS011;37372;52.294;5.152;2023-06-26T14:34:48;5.00;;;1.42;;
51288;SDS011;37372;52.294;5.152;2023-06-26T14:37:14;5.28;;;1.15;;
51288;SDS011;37372;52.294;5.152;2023-06-26T14:39:39;2.42;;;0.90;;
51288;SDS011;37372;52.294;5.152;2023-06-26T14:42:05;6.70;;;1.30;;
51288;SDS011;37372;52.294;5.152;2023-06-26T14:44:30;6.35;;;1.10;;
51288;SDS011;37372;52.294;5.152;2023-06-26T14:46:56;4.88;;;1.60;;
51288;SDS011;37372;52.294;5.152;2023-06-26T14:49:22;4.18;;;1.00;;
51288;SDS011;37372;52.294;5.152;2023-06-26T14:51:47;7.88;;;1.45;;